createdAt,value
2022-11-02T00:01:27.151Z,14.50
2022-11-02T00:05:31.070Z,14.50
2022-11-02T00:09:34.070Z,14.50
2022-11-02T00:13:37.100Z,14.50
2022-11-02T00:17:50.007Z,14.50
2022-11-02T00:21:52.960Z,14.50
2022-11-02T00:26:00.691Z,14.50
2022-11-02T00:30:05.516Z,14.40
2022-11-02T00:34:08.273Z,14.30
2022-11-02T00:38:10.988Z,14.20
2022-11-02T00:42:13.884Z,14.10
2022-11-02T00:46:16.672Z,14.00
2022-11-02T00:50:19.426Z,14.00
2022-11-02T00:54:25.906Z,13.90
2022-11-02T00:58:31.582Z,13.80
2022-11-02T01:02:35.134Z,13.60
2022-11-02T01:06:38.410Z,13.60
2022-11-02T01:10:44.086Z,13.50
2022-11-02T01:14:50.819Z,13.50
2022-11-02T01:18:55.268Z,13.50
2022-11-02T01:22:59.264Z,13.40
2022-11-02T01:27:02.540Z,13.30
2022-11-02T01:31:06.963Z,13.30
2022-11-02T01:35:11.830Z,13.20
2022-11-02T01:39:15.575Z,13.10
2022-11-02T01:43:24.467Z,13.00
2022-11-02T01:47:34.981Z,13.00
2022-11-02T01:51:49.435Z,12.90
2022-11-02T01:55:52.795Z,12.90
2022-11-02T02:00:08.302Z,12.80
2022-11-02T02:04:20.893Z,12.80
2022-11-02T02:08:25.600Z,12.80
2022-11-02T02:12:29.679Z,12.80
2022-11-02T02:17:03.397Z,12.80
2022-11-02T02:21:40.101Z,12.80
2022-11-02T02:25:52.121Z,12.80
2022-11-02T02:29:55.542Z,12.70
2022-11-02T02:34:21.028Z,12.70
2022-11-02T02:38:40.098Z,12.70
2022-11-02T02:43:05.524Z,12.60
2022-11-02T02:47:17.141Z,12.50
2022-11-02T02:51:25.901Z,12.50
2022-11-02T02:55:35.862Z,12.50
2022-11-02T02:59:48.722Z,12.50
2022-11-02T03:03:54.984Z,12.50
2022-11-02T03:08:17.963Z,12.60
2022-11-02T03:12:50.257Z,12.60
2022-11-02T03:17:18.866Z,12.50
2022-11-02T03:21:43.854Z,12.50
2022-11-02T03:26:03.730Z,12.40
2022-11-02T03:30:17.534Z,12.30
2022-11-02T03:34:24.917Z,12.30
2022-11-02T03:38:44.572Z,12.20
2022-11-02T03:42:51.117Z,12.10
2022-11-02T03:47:00.238Z,12.00
2022-11-02T03:51:10.630Z,12.00
2022-11-02T03:55:20.653Z,12.00
2022-11-02T03:59:23.693Z,12.00
2022-11-02T04:03:28.471Z,12.00
2022-11-02T04:07:58.465Z,11.90
2022-11-02T04:12:22.051Z,11.90
2022-11-02T04:16:28.380Z,11.80
2022-11-02T04:20:33.400Z,11.80
2022-11-02T04:24:54.620Z,11.80
2022-11-02T04:28:58.513Z,11.80
2022-11-02T04:33:19.815Z,11.80
2022-11-02T04:37:48.326Z,11.80
2022-11-02T04:41:51.493Z,11.80
2022-11-02T04:46:13.883Z,11.80
2022-11-02T04:50:17.046Z,11.70
2022-11-02T04:54:20.569Z,11.60
2022-11-02T04:58:28.512Z,11.60
2022-11-02T05:02:32.201Z,11.60
2022-11-02T05:06:35.097Z,11.60
2022-11-02T05:10:39.019Z,11.60
2022-11-02T05:14:42.707Z,11.60
2022-11-02T05:18:45.845Z,11.50
2022-11-02T05:22:50.849Z,11.50
2022-11-02T05:26:55.281Z,11.50
2022-11-02T05:31:02.247Z,11.50
2022-11-02T05:35:08.635Z,11.50
2022-11-02T05:39:11.323Z,11.50
2022-11-02T05:43:16.624Z,11.50
2022-11-02T05:47:20.276Z,11.50
2022-11-02T05:51:23.113Z,11.60
2022-11-02T05:55:25.825Z,11.50
2022-11-02T05:59:30.874Z,11.50
2022-11-02T06:03:36.218Z,11.50
2022-11-02T06:07:38.993Z,11.50
2022-11-02T06:11:41.846Z,11.50
2022-11-02T06:15:44.688Z,11.50
2022-11-02T06:19:47.498Z,11.50
2022-11-02T06:23:50.855Z,11.50
2022-11-02T06:27:56.708Z,11.50
2022-11-02T06:32:03.725Z,11.60
2022-11-02T06:36:07.325Z,11.60
2022-11-02T06:40:11.126Z,11.60
2022-11-02T06:44:13.855Z,11.70
2022-11-02T06:48:17.104Z,11.90
2022-11-02T06:52:20.037Z,12.00
2022-11-02T06:56:22.999Z,12.00
2022-11-02T07:00:26.141Z,12.20
2022-11-02T07:04:28.914Z,12.30
2022-11-02T07:08:31.825Z,12.50
2022-11-02T07:12:34.994Z,12.40
2022-11-02T07:16:37.919Z,12.30
2022-11-02T07:20:41.092Z,12.50
2022-11-02T07:24:44.032Z,12.60
2022-11-02T07:28:47.270Z,12.80
2022-11-02T07:32:50.215Z,13.00
2022-11-02T07:36:54.131Z,13.10
2022-11-02T07:40:57.008Z,13.20
2022-11-02T07:45:02.262Z,13.50
2022-11-02T07:49:06.090Z,13.80
2022-11-02T07:53:09.680Z,14.10
2022-11-02T07:57:12.552Z,14.30
2022-11-02T08:01:15.622Z,14.40
2022-11-02T08:05:18.548Z,14.50
2022-11-02T08:09:21.613Z,14.70
2022-11-02T08:13:26.152Z,14.90
2022-11-02T08:17:29.122Z,15.00
2022-11-02T08:21:32.112Z,15.10
2022-11-02T08:25:35.874Z,15.30
2022-11-02T08:29:38.810Z,15.50
2022-11-02T08:33:47.448Z,15.70
2022-11-02T08:37:58.114Z,15.90
2022-11-02T08:42:02.993Z,16.00
2022-11-02T08:46:14.710Z,16.10
2022-11-02T08:50:18.629Z,16.50
2022-11-02T08:54:21.558Z,16.90
2022-11-02T08:58:24.632Z,17.10
2022-11-02T09:02:29.423Z,17.40
2022-11-02T09:06:32.852Z,17.70
2022-11-02T09:10:37.221Z,18.00
2022-11-02T09:14:40.177Z,18.10
2022-11-02T09:18:45.738Z,18.40
2022-11-02T09:22:49.155Z,18.60
2022-11-02T09:26:53.731Z,19.00
2022-11-02T09:30:56.724Z,19.20
2022-11-02T09:35:01.248Z,19.50
2022-11-02T09:39:04.605Z,19.50
2022-11-02T09:43:13.266Z,19.50
2022-11-02T09:48:03.113Z,19.60
2022-11-02T09:51:46.283Z,19.70
2022-11-02T09:55:56.967Z,19.90
2022-11-02T10:00:00.095Z,20.20
2022-11-02T10:04:35.217Z,20.50
2022-11-02T10:08:59.853Z,20.60
2022-11-02T10:13:29.165Z,20.60
2022-11-02T10:17:37.317Z,20.90
2022-11-02T10:21:43.545Z,20.90
2022-11-02T10:25:48.255Z,21.00
2022-11-02T10:30:05.973Z,21.00
2022-11-02T10:34:26.196Z,21.20
2022-11-02T10:38:38.701Z,21.30
2022-11-02T10:43:06.136Z,21.60
2022-11-02T10:47:09.849Z,21.80
2022-11-02T10:51:22.786Z,21.90
2022-11-02T10:56:31.137Z,22.00
2022-11-02T11:00:38.435Z,22.20
2022-11-02T11:04:55.242Z,22.40
2022-11-02T11:09:07.552Z,22.50
2022-11-02T11:22:35.676Z,22.80
2022-11-02T11:26:43.634Z,22.50
2022-11-02T11:31:05.089Z,22.30
2022-11-02T11:35:23.774Z,22.40
2022-11-02T11:39:33.448Z,22.30
2022-11-02T11:43:41.105Z,22.30
2022-11-02T11:47:44.436Z,22.30
2022-11-02T11:51:55.187Z,22.60
2022-11-02T11:56:01.523Z,22.80
2022-11-02T12:00:34.687Z,22.90
2022-11-02T12:04:42.024Z,23.30
2022-11-02T12:09:18.225Z,23.50
2022-11-02T12:13:43.967Z,23.60
2022-11-02T12:17:55.725Z,23.60
2022-11-02T12:22:45.590Z,23.60
2022-11-02T12:27:42.026Z,23.70
2022-11-02T12:37:26.531Z,23.50
2022-11-02T12:41:38.462Z,23.20
2022-11-02T12:45:52.546Z,23.00
2022-11-02T12:50:24.813Z,22.90
2022-11-02T12:55:01.997Z,22.90
2022-11-02T12:59:07.579Z,23.00
2022-11-02T13:03:35.140Z,23.00
2022-11-02T13:07:59.750Z,23.20
2022-11-02T13:22:49.599Z,23.20
2022-11-02T13:27:21.973Z,23.20
2022-11-02T13:31:36.649Z,23.20
2022-11-02T13:35:47.501Z,23.10
2022-11-02T13:39:54.725Z,23.10
2022-11-02T13:44:22.690Z,23.10
2022-11-02T13:49:07.758Z,23.00
2022-11-02T13:53:35.037Z,23.00
2022-11-02T13:57:51.646Z,22.90
2022-11-02T14:01:57.348Z,22.80
2022-11-02T14:06:10.458Z,22.80
2022-11-02T14:10:23.038Z,22.80
2022-11-02T14:14:26.537Z,22.80
2022-11-02T14:25:04.388Z,23.00
2022-11-02T14:34:54.340Z,22.90
2022-11-02T14:39:49.564Z,23.00
2022-11-02T14:44:34.425Z,23.00
2022-11-02T14:49:15.636Z,23.10
2022-11-02T14:53:30.186Z,23.30
2022-11-02T14:57:40.497Z,23.10
2022-11-02T15:02:22.387Z,23.00
2022-11-02T15:06:45.071Z,23.00
2022-11-02T15:12:01.820Z,22.90
2022-11-02T15:16:11.011Z,22.80
2022-11-02T15:20:30.797Z,22.60
2022-11-02T15:39:39.665Z,22.00
2022-11-02T15:44:20.152Z,21.50
2022-11-02T15:48:40.787Z,21.00
2022-11-02T15:55:32.941Z,20.80
2022-11-02T15:59:15.239Z,20.50
2022-11-02T16:03:36.831Z,20.00
2022-11-02T16:08:53.913Z,19.70
2022-11-02T16:13:23.480Z,19.40
2022-11-02T16:18:00.018Z,19.10
2022-11-02T16:22:26.354Z,18.80
2022-11-02T16:26:57.438Z,18.60
2022-11-02T16:31:19.752Z,18.50
2022-11-02T16:35:30.471Z,18.30
2022-11-02T16:39:59.952Z,18.00
2022-11-02T16:44:30.576Z,18.00
2022-11-02T16:49:26.962Z,17.90
2022-11-02T16:53:34.435Z,17.80
2022-11-02T16:57:50.711Z,17.70
2022-11-02T17:02:12.543Z,17.60
2022-11-02T17:06:23.876Z,17.50
2022-11-02T17:10:35.071Z,17.50
2022-11-02T17:14:56.681Z,17.30
2022-11-02T17:19:15.783Z,17.30
2022-11-02T17:34:23.686Z,17.10
2022-11-02T17:39:07.670Z,16.90
2022-11-02T17:44:35.414Z,16.80
2022-11-02T17:48:41.759Z,16.50
